sensor_id;sensor_type;location;lat;lon;timestamp;P1;durP1;ratioP1;P2;durP2;ratioP2
14268;SDS011;7218;51.480;7.006;2023-07-31T00:00:33;11.15;;;6.00;;
14268;SDS011;7218;51.480;7.006;2023-07-31T00:03:01;11.20;;;6.40;;
14268;SDS011;7218;51.480;7.006;2023-07-31T00:05:27;12.48;;;6.65;;
14268;SDS011;7218;51.480;7.006;2023-07-31T00:07:54;10.60;;;5.97;;
14268;SDS011;7218;51.480;7.006;2023-07-31T00:10:20;10.65;;;6.95;;
14268;SDS011;7218;51.480;7.006;2023-07-31T00:12:47;11.10;;;6.10;;
14268;SDS011;7218;51.480;7.006;2023-07-31T00:15:14;12.85;;;6.10;;
14268;SDS011;7218;51.480;7.006;2023-07-31T00:17:41;13.32;;;6.20;;
14268;SDS011;7218;51.480;7.006;2023-07-31T00:20:09;9.80;;;6.60;;
14268;SDS011;7218;51.480;7.006;2023-07-31T00:22:36;12.02;;;5.82;;
14268;SDS011;7218;51.480;7.006;2023-07-31T00:25:03;10.93;;;6.82;;
14268;SDS011;7218;51.480;7.006;2023-07-31T00:27:31;14.07;;;6.53;;
14268;SDS011;7218;51.480;7.006;2023-07-31T00:29:58;13.02;;;6.78;;
14268;SDS011;7218;51.480;7.006;2023-07-31T00:32:24;13.85;;;6.43;;
14268;SDS011;7218;51.480;7.006;2023-07-31T00:34:51;12.40;;;6.28;;
14268;SDS011;7218;51.480;7.006;2023-07-31T00:37:19;14.23;;;7.10;;
14268;SDS011;7218;51.480;7.006;2023-07-31T00:39:46;14.65;;;7.50;;
14268;SDS011;7218;51.480;7.006;2023-07-31T00:42:12;16.02;;;6.57;;
14268;SDS011;7218;51.480;7.006;2023-07-31T00:44:39;12.57;;;6.22;;
14268;SDS011;7218;51.480;7.006;2023-07-31T00:47:05;14.70;;;6.47;;
14268;SDS011;7218;51.480;7.006;2023-07-31T00:49:32;13.82;;;6.60;;
14268;SDS011;7218;51.480;7.006;2023-07-31T00:51:59;15.65;;;6.22;;
14268;SDS011;7218;51.480;7.006;2023-07-31T00:54:27;18.42;;;6.65;;
14268;SDS011;7218;51.480;7.006;2023-07-31T00:56:53;14.27;;;6.32;;
14268;SDS011;7218;51.480;7.006;2023-07-31T00:59:20;15.30;;;6.50;;
14268;SDS011;7218;51.480;7.006;2023-07-31T01:01:47;12.65;;;5.75;;
14268;SDS011;7218;51.480;7.006;2023-07-31T01:04:14;15.25;;;5.50;;
14268;SDS011;7218;51.480;7.006;2023-07-31T01:06:44;13.13;;;5.88;;
14268;SDS011;7218;51.480;7.006;2023-07-31T01:09:16;12.25;;;5.47;;
14268;SDS011;7218;51.480;7.006;2023-07-31T01:11:56;13.60;;;6.13;;
14268;SDS011;7218;51.480;7.006;2023-07-31T01:14:24;11.77;;;5.40;;
14268;SDS011;7218;51.480;7.006;2023-07-31T01:16:51;12.55;;;5.55;;
14268;SDS011;7218;51.480;7.006;2023-07-31T01:19:17;11.88;;;5.15;;
14268;SDS011;7218;51.480;7.006;2023-07-31T01:21:53;16.70;;;5.57;;
14268;SDS011;7218;51.480;7.006;2023-07-31T01:24:36;12.25;;;4.95;;
14268;SDS011;7218;51.480;7.006;2023-07-31T01:27:17;10.63;;;5.32;;
14268;SDS011;7218;51.480;7.006;2023-07-31T01:29:51;11.32;;;4.72;;
14268;SDS011;7218;51.480;7.006;2023-07-31T01:32:22;13.75;;;5.15;;
14268;SDS011;7218;51.480;7.006;2023-07-31T01:34:49;13.38;;;5.13;;
14268;SDS011;7218;51.480;7.006;2023-07-31T01:37:17;13.32;;;4.85;;
14268;SDS011;7218;51.480;7.006;2023-07-31T01:39:43;11.45;;;5.03;;
14268;SDS011;7218;51.480;7.006;2023-07-31T01:42:11;12.82;;;5.05;;
14268;SDS011;7218;51.480;7.006;2023-07-31T01:44:39;10.32;;;4.82;;
14268;SDS011;7218;51.480;7.006;2023-07-31T01:47:05;14.07;;;4.95;;
14268;SDS011;7218;51.480;7.006;2023-07-31T01:49:32;10.27;;;4.63;;
14268;SDS011;7218;51.480;7.006;2023-07-31T01:51:58;11.23;;;4.68;;
14268;SDS011;7218;51.480;7.006;2023-07-31T01:54:25;11.60;;;5.07;;
14268;SDS011;7218;51.480;7.006;2023-07-31T01:56:51;9.98;;;4.55;;
14268;SDS011;7218;51.480;7.006;2023-07-31T01:59:18;15.68;;;5.47;;
14268;SDS011;7218;51.480;7.006;2023-07-31T02:01:45;9.93;;;4.78;;
14268;SDS011;7218;51.480;7.006;2023-07-31T02:04:12;15.13;;;4.65;;
14268;SDS011;7218;51.480;7.006;2023-07-31T02:06:38;11.75;;;4.82;;
14268;SDS011;7218;51.480;7.006;2023-07-31T02:09:05;11.27;;;4.32;;
14268;SDS011;7218;51.480;7.006;2023-07-31T02:11:31;9.70;;;4.20;;
14268;SDS011;7218;51.480;7.006;2023-07-31T02:13:58;14.07;;;4.68;;
14268;SDS011;7218;51.480;7.006;2023-07-31T02:16:24;11.52;;;4.57;;
14268;SDS011;7218;51.480;7.006;2023-07-31T02:18:52;12.63;;;4.70;;
14268;SDS011;7218;51.480;7.006;2023-07-31T02:21:18;13.60;;;4.85;;
14268;SDS011;7218;51.480;7.006;2023-07-31T02:23:45;10.63;;;4.75;;
14268;SDS011;7218;51.480;7.006;2023-07-31T02:26:11;10.48;;;4.10;;
14268;SDS011;7218;51.480;7.006;2023-07-31T02:28:38;10.40;;;4.50;;
14268;SDS011;7218;51.480;7.006;2023-07-31T02:31:07;12.30;;;4.60;;
14268;SDS011;7218;51.480;7.006;2023-07-31T02:33:34;11.93;;;4.07;;
14268;SDS011;7218;51.480;7.006;2023-07-31T02:36:02;11.13;;;4.15;;
14268;SDS011;7218;51.480;7.006;2023-07-31T02:38:28;12.23;;;4.70;;
14268;SDS011;7218;51.480;7.006;2023-07-31T02:40:55;8.23;;;4.18;;
14268;SDS011;7218;51.480;7.006;2023-07-31T02:43:21;12.95;;;4.93;;
14268;SDS011;7218;51.480;7.006;2023-07-31T02:45:50;11.57;;;5.10;;
14268;SDS011;7218;51.480;7.006;2023-07-31T02:48:17;10.80;;;4.72;;
14268;SDS011;7218;51.480;7.006;2023-07-31T02:50:44;12.55;;;4.90;;
14268;SDS011;7218;51.480;7.006;2023-07-31T02:53:12;8.55;;;4.60;;
14268;SDS011;7218;51.480;7.006;2023-07-31T02:55:38;12.48;;;5.32;;
14268;SDS011;7218;51.480;7.006;2023-07-31T02:58:05;13.02;;;5.22;;
14268;SDS011;7218;51.480;7.006;2023-07-31T03:00:31;10.43;;;4.63;;
14268;SDS011;7218;51.480;7.006;2023-07-31T03:02:57;16.08;;;4.80;;
14268;SDS011;7218;51.480;7.006;2023-07-31T03:05:24;15.18;;;5.07;;
14268;SDS011;7218;51.480;7.006;2023-07-31T03:07:51;10.68;;;4.63;;
14268;SDS011;7218;51.480;7.006;2023-07-31T03:10:18;12.68;;;4.88;;
14268;SDS011;7218;51.480;7.006;2023-07-31T03:12:46;14.95;;;4.95;;
14268;SDS011;7218;51.480;7.006;2023-07-31T03:15:13;14.23;;;4.80;;
14268;SDS011;7218;51.480;7.006;2023-07-31T03:17:39;13.30;;;5.03;;
14268;SDS011;7218;51.480;7.006;2023-07-31T03:20:06;10.60;;;4.70;;
14268;SDS011;7218;51.480;7.006;2023-07-31T03:22:33;11.90;;;4.32;;
14268;SDS011;7218;51.480;7.006;2023-07-31T03:25:00;11.32;;;4.93;;
14268;SDS011;7218;51.480;7.006;2023-07-31T03:27:28;10.70;;;4.70;;
14268;SDS011;7218;51.480;7.006;2023-07-31T03:29:54;15.52;;;4.95;;
14268;SDS011;7218;51.480;7.006;2023-07-31T03:32:21;13.65;;;4.82;;
14268;SDS011;7218;51.480;7.006;2023-07-31T03:34:47;8.48;;;4.10;;
14268;SDS011;7218;51.480;7.006;2023-07-31T03:37:15;11.52;;;4.43;;
14268;SDS011;7218;51.480;7.006;2023-07-31T03:39:41;12.90;;;4.93;;
14268;SDS011;7218;51.480;7.006;2023-07-31T03:42:08;13.27;;;4.60;;
14268;SDS011;7218;51.480;7.006;2023-07-31T03:44:36;10.82;;;4.65;;
14268;SDS011;7218;51.480;7.006;2023-07-31T03:47:02;11.25;;;4.50;;
14268;SDS011;7218;51.480;7.006;2023-07-31T03:49:29;12.18;;;4.80;;
14268;SDS011;7218;51.480;7.006;2023-07-31T03:51:55;13.57;;;4.65;;
14268;SDS011;7218;51.480;7.006;2023-07-31T03:54:22;13.13;;;4.32;;
14268;SDS011;7218;51.480;7.006;2023-07-31T03:56:48;12.48;;;5.05;;
14268;SDS011;7218;51.480;7.006;2023-07-31T03:59:15;9.85;;;4.30;;
14268;SDS011;7218;51.480;7.006;2023-07-31T04:01:43;11.73;;;4.60;;
14268;SDS011;7218;51.480;7.006;2023-07-31T04:04:09;11.63;;;4.47;;
14268;SDS011;7218;51.480;7.006;2023-07-31T04:06:36;12.10;;;4.68;;
14268;SDS011;7218;51.480;7.006;2023-07-31T04:09:02;8.85;;;4.20;;
14268;SDS011;7218;51.480;7.006;2023-07-31T04:11:29;11.02;;;4.47;;
14268;SDS011;7218;51.480;7.006;2023-07-31T04:13:55;12.75;;;3.95;;
14268;SDS011;7218;51.480;7.006;2023-07-31T04:16:22;10.90;;;4.38;;
14268;SDS011;7218;51.480;7.006;2023-07-31T04:18:49;8.80;;;4.10;;
14268;SDS011;7218;51.480;7.006;2023-07-31T04:21:16;8.68;;;4.60;;
14268;SDS011;7218;51.480;7.006;2023-07-31T04:23:42;10.13;;;4.07;;
14268;SDS011;7218;51.480;7.006;2023-07-31T04:26:09;10.75;;;4.18;;
14268;SDS011;7218;51.480;7.006;2023-07-31T04:28:35;11.15;;;4.22;;
14268;SDS011;7218;51.480;7.006;2023-07-31T04:31:02;10.25;;;4.80;;
14268;SDS011;7218;51.480;7.006;2023-07-31T04:33:29;10.55;;;3.90;;
14268;SDS011;7218;51.480;7.006;2023-07-31T04:35:58;12.13;;;4.57;;
14268;SDS011;7218;51.480;7.006;2023-07-31T04:38:25;9.80;;;4.20;;
14268;SDS011;7218;51.480;7.006;2023-07-31T04:40:52;9.70;;;4.30;;
14268;SDS011;7218;51.480;7.006;2023-07-31T04:43:18;15.13;;;4.45;;
14268;SDS011;7218;51.480;7.006;2023-07-31T04:45:45;11.27;;;4.55;;
14268;SDS011;7218;51.480;7.006;2023-07-31T04:48:12;9.85;;;4.05;;
14268;SDS011;7218;51.480;7.006;2023-07-31T04:50:39;11.63;;;4.15;;
14268;SDS011;7218;51.480;7.006;2023-07-31T04:53:07;11.02;;;4.15;;
14268;SDS011;7218;51.480;7.006;2023-07-31T04:55:33;13.07;;;4.25;;
14268;SDS011;7218;51.480;7.006;2023-07-31T04:58:00;7.63;;;4.70;;
14268;SDS011;7218;51.480;7.006;2023-07-31T05:00:26;11.30;;;4.28;;
14268;SDS011;7218;51.480;7.006;2023-07-31T05:02:53;8.15;;;4.15;;
14268;SDS011;7218;51.480;7.006;2023-07-31T05:05:19;11.82;;;4.53;;
14268;SDS011;7218;51.480;7.006;2023-07-31T05:07:46;9.88;;;4.30;;
14268;SDS011;7218;51.480;7.006;2023-07-31T05:10:14;7.53;;;4.18;;
14268;SDS011;7218;51.480;7.006;2023-07-31T05:12:40;12.63;;;4.57;;
14268;SDS011;7218;51.480;7.006;2023-07-31T05:15:07;9.02;;;4.18;;
14268;SDS011;7218;51.480;7.006;2023-07-31T05:17:34;9.23;;;4.53;;
14268;SDS011;7218;51.480;7.006;2023-07-31T05:20:00;8.65;;;4.50;;
14268;SDS011;7218;51.480;7.006;2023-07-31T05:22:27;12.70;;;4.40;;
14268;SDS011;7218;51.480;7.006;2023-07-31T05:24:53;11.77;;;5.05;;
14268;SDS011;7218;51.480;7.006;2023-07-31T05:27:21;9.63;;;4.40;;
14268;SDS011;7218;51.480;7.006;2023-07-31T05:29:48;10.00;;;4.43;;
14268;SDS011;7218;51.480;7.006;2023-07-31T05:32:14;10.90;;;4.40;;
14268;SDS011;7218;51.480;7.006;2023-07-31T05:34:41;9.48;;;4.80;;
14268;SDS011;7218;51.480;7.006;2023-07-31T05:37:07;9.10;;;4.20;;
14268;SDS011;7218;51.480;7.006;2023-07-31T05:39:36;9.05;;;4.20;;
14268;SDS011;7218;51.480;7.006;2023-07-31T05:42:02;7.95;;;4.38;;
14268;SDS011;7218;51.480;7.006;2023-07-31T05:44:30;11.68;;;4.68;;
14268;SDS011;7218;51.480;7.006;2023-07-31T05:46:57;11.00;;;4.63;;
14268;SDS011;7218;51.480;7.006;2023-07-31T05:49:23;10.68;;;4.65;;
14268;SDS011;7218;51.480;7.006;2023-07-31T05:51:50;7.75;;;3.83;;
14268;SDS011;7218;51.480;7.006;2023-07-31T05:54:16;9.35;;;4.28;;
14268;SDS011;7218;51.480;7.006;2023-07-31T05:56:43;8.15;;;4.95;;
14268;SDS011;7218;51.480;7.006;2023-07-31T05:59:09;10.43;;;4.47;;
14268;SDS011;7218;51.480;7.006;2023-07-31T06:01:39;10.20;;;4.68;;
14268;SDS011;7218;51.480;7.006;2023-07-31T06:04:06;7.05;;;4.32;;
14268;SDS011;7218;51.480;7.006;2023-07-31T06:06:32;11.43;;;4.88;;
14268;SDS011;7218;51.480;7.006;2023-07-31T06:08:59;9.90;;;4.68;;
14268;SDS011;7218;51.480;7.006;2023-07-31T06:11:26;9.88;;;4.78;;
14268;SDS011;7218;51.480;7.006;2023-07-31T06:13:52;7.93;;;5.10;;
14268;SDS011;7218;51.480;7.006;2023-07-31T06:16:19;7.15;;;4.68;;
14268;SDS011;7218;51.480;7.006;2023-07-31T06:18:47;8.57;;;4.60;;
14268;SDS011;7218;51.480;7.006;2023-07-31T06:21:14;9.13;;;4.68;;
14268;SDS011;7218;51.480;7.006;2023-07-31T06:23:40;11.02;;;4.47;;
14268;SDS011;7218;51.480;7.006;2023-07-31T06:26:07;10.07;;;4.70;;
14268;SDS011;7218;51.480;7.006;2023-07-31T06:28:34;12.05;;;4.68;;
14268;SDS011;7218;51.480;7.006;2023-07-31T06:31:01;11.05;;;5.07;;
14268;SDS011;7218;51.480;7.006;2023-07-31T06:33:27;10.95;;;4.95;;
14268;SDS011;7218;51.480;7.006;2023-07-31T06:35:55;8.60;;;4.85;;
14268;SDS011;7218;51.480;7.006;2023-07-31T06:38:22;10.10;;;4.90;;
14268;SDS011;7218;51.480;7.006;2023-07-31T06:40:50;9.18;;;5.05;;
14268;SDS011;7218;51.480;7.006;2023-07-31T06:43:16;11.55;;;5.40;;
14268;SDS011;7218;51.480;7.006;2023-07-31T06:45:43;9.82;;;4.60;;
14268;SDS011;7218;51.480;7.006;2023-07-31T06:48:10;8.35;;;5.22;;
14268;SDS011;7218;51.480;7.006;2023-07-31T06:50:37;8.32;;;4.70;;
14268;SDS011;7218;51.480;7.006;2023-07-31T06:53:05;7.63;;;5.10;;
14268;SDS011;7218;51.480;7.006;2023-07-31T06:55:31;7.82;;;4.90;;
14268;SDS011;7218;51.480;7.006;2023-07-31T06:57:58;6.90;;;4.55;;
14268;SDS011;7218;51.480;7.006;2023-07-31T07:00:24;6.53;;;4.53;;
14268;SDS011;7218;51.480;7.006;2023-07-31T07:02:51;7.40;;;4.10;;
14268;SDS011;7218;51.480;7.006;2023-07-31T07:05:17;7.10;;;4.75;;
14268;SDS011;7218;51.480;7.006;2023-07-31T07:07:44;9.02;;;4.75;;
14268;SDS011;7218;51.480;7.006;2023-07-31T07:10:12;8.23;;;4.45;;
14268;SDS011;7218;51.480;7.006;2023-07-31T07:12:38;6.57;;;4.75;;
14268;SDS011;7218;51.480;7.006;2023-07-31T07:15:05;8.13;;;4.40;;
14268;SDS011;7218;51.480;7.006;2023-07-31T07:17:32;7.00;;;4.38;;
14268;SDS011;7218;51.480;7.006;2023-07-31T07:19:59;9.82;;;5.07;;
14268;SDS011;7218;51.480;7.006;2023-07-31T07:22:26;6.80;;;4.10;;
14268;SDS011;7218;51.480;7.006;2023-07-31T07:24:53;7.50;;;4.75;;
14268;SDS011;7218;51.480;7.006;2023-07-31T07:27:21;9.35;;;4.93;;
14268;SDS011;7218;51.480;7.006;2023-07-31T07:29:49;7.35;;;4.55;;
14268;SDS011;7218;51.480;7.006;2023-07-31T07:32:16;7.80;;;4.65;;
14268;SDS011;7218;51.480;7.006;2023-07-31T07:34:43;8.38;;;4.88;;
14268;SDS011;7218;51.480;7.006;2023-07-31T07:37:10;7.95;;;5.22;;
14268;SDS011;7218;51.480;7.006;2023-07-31T07:39:36;9.80;;;4.60;;
14268;SDS011;7218;51.480;7.006;2023-07-31T07:42:03;8.40;;;4.68;;
14268;SDS011;7218;51.480;7.006;2023-07-31T07:44:31;7.80;;;4.60;;
14268;SDS011;7218;51.480;7.006;2023-07-31T07:46:57;6.82;;;4.60;;
14268;SDS011;7218;51.480;7.006;2023-07-31T07:49:24;8.10;;;4.53;;
14268;SDS011;7218;51.480;7.006;2023-07-31T07:51:50;6.68;;;4.10;;
14268;SDS011;7218;51.480;7.006;2023-07-31T07:54:17;7.68;;;4.82;;
14268;SDS011;7218;51.480;7.006;2023-07-31T07:56:44;7.35;;;4.60;;
14268;SDS011;7218;51.480;7.006;2023-07-31T07:59:10;11.07;;;4.40;;
14268;SDS011;7218;51.480;7.006;2023-07-31T08:01:38;7.63;;;4.13;;
14268;SDS011;7218;51.480;7.006;2023-07-31T08:04:05;6.40;;;4.05;;
14268;SDS011;7218;51.480;7.006;2023-07-31T08:06:31;7.55;;;4.45;;
14268;SDS011;7218;51.480;7.006;2023-07-31T08:08:58;6.60;;;4.10;;
14268;SDS011;7218;51.480;7.006;2023-07-31T08:11:30;9.63;;;3.97;;
14268;SDS011;7218;51.480;7.006;2023-07-31T08:13:56;6.00;;;3.65;;
14268;SDS011;7218;51.480;7.006;2023-07-31T08:16:23;5.13;;;3.40;;
14268;SDS011;7218;51.480;7.006;2023-07-31T08:18:51;5.50;;;3.22;;
14268;SDS011;7218;51.480;7.006;2023-07-31T08:21:17;4.45;;;3.30;;
14268;SDS011;7218;51.480;7.006;2023-07-31T08:23:44;6.20;;;3.20;;
14268;SDS011;7218;51.480;7.006;2023-07-31T08:26:14;5.32;;;3.03;;
14268;SDS011;7218;51.480;7.006;2023-07-31T08:28:41;5.75;;;3.40;;
14268;SDS011;7218;51.480;7.006;2023-07-31T08:31:07;5.40;;;3.47;;
14268;SDS011;7218;51.480;7.006;2023-07-31T08:33:34;4.72;;;3.33;;
14268;SDS011;7218;51.480;7.006;2023-07-31T08:36:02;5.22;;;3.15;;
14268;SDS011;7218;51.480;7.006;2023-07-31T08:38:29;6.03;;;3.60;;
14268;SDS011;7218;51.480;7.006;2023-07-31T08:40:56;5.28;;;3.22;;
14268;SDS011;7218;51.480;7.006;2023-07-31T08:43:23;6.70;;;3.50;;
14268;SDS011;7218;51.480;7.006;2023-07-31T08:45:52;5.70;;;3.20;;
14268;SDS011;7218;51.480;7.006;2023-07-31T08:48:19;4.82;;;3.15;;
14268;SDS011;7218;51.480;7.006;2023-07-31T08:50:46;4.18;;;3.13;;
14268;SDS011;7218;51.480;7.006;2023-07-31T08:53:14;4.70;;;3.45;;
14268;SDS011;7218;51.480;7.006;2023-07-31T08:55:41;6.65;;;3.22;;
14268;SDS011;7218;51.480;7.006;2023-07-31T08:58:09;5.50;;;3.20;;
14268;SDS011;7218;51.480;7.006;2023-07-31T09:00:38;6.43;;;3.65;;
14268;SDS011;7218;51.480;7.006;2023-07-31T09:03:09;6.10;;;3.45;;
14268;SDS011;7218;51.480;7.006;2023-07-31T09:05:40;4.82;;;3.10;;
14268;SDS011;7218;51.480;7.006;2023-07-31T09:08:09;4.15;;;2.78;;
14268;SDS011;7218;51.480;7.006;2023-07-31T09:10:37;4.65;;;2.88;;
14268;SDS011;7218;51.480;7.006;2023-07-31T09:13:07;6.88;;;3.67;;
14268;SDS011;7218;51.480;7.006;2023-07-31T09:15:34;4.22;;;3.10;;
14268;SDS011;7218;51.480;7.006;2023-07-31T09:18:02;4.50;;;3.13;;
14268;SDS011;7218;51.480;7.006;2023-07-31T09:20:29;7.65;;;3.05;;
14268;SDS011;7218;51.480;7.006;2023-07-31T09:22:56;4.53;;;2.92;;
14268;SDS011;7218;51.480;7.006;2023-07-31T09:25:32;3.55;;;2.65;;
14268;SDS011;7218;51.480;7.006;2023-07-31T09:28:00;6.40;;;3.05;;
14268;SDS011;7218;51.480;7.006;2023-07-31T09:30:27;4.10;;;3.00;;
14268;SDS011;7218;51.480;7.006;2023-07-31T09:33:00;4.60;;;2.63;;
14268;SDS011;7218;51.480;7.006;2023-07-31T09:35:28;4.47;;;2.70;;
14268;SDS011;7218;51.480;7.006;2023-07-31T09:37:57;3.75;;;3.10;;
14268;SDS011;7218;51.480;7.006;2023-07-31T09:40:27;4.25;;;3.00;;
14268;SDS011;7218;51.480;7.006;2023-07-31T09:42:56;4.30;;;3.03;;
14268;SDS011;7218;51.480;7.006;2023-07-31T09:45:25;5.78;;;3.17;;
14268;SDS011;7218;51.480;7.006;2023-07-31T09:47:52;4.72;;;3.60;;
14268;SDS011;7218;51.480;7.006;2023-07-31T09:50:19;4.28;;;2.55;;
14268;SDS011;7218;51.480;7.006;2023-07-31T09:52:47;2.75;;;2.40;;
14268;SDS011;7218;51.480;7.006;2023-07-31T09:55:13;3.75;;;2.50;;
14268;SDS011;7218;51.480;7.006;2023-07-31T09:57:40;3.53;;;2.80;;
14268;SDS011;7218;51.480;7.006;2023-07-31T10:00:08;2.60;;;2.00;;
14268;SDS011;7218;51.480;7.006;2023-07-31T10:02:37;3.35;;;2.65;;
14268;SDS011;7218;51.480;7.006;2023-07-31T10:05:04;4.15;;;2.35;;
14268;SDS011;7218;51.480;7.006;2023-07-31T10:07:33;2.58;;;2.10;;
14268;SDS011;7218;51.480;7.006;2023-07-31T10:10:04;3.20;;;2.25;;
14268;SDS011;7218;51.480;7.006;2023-07-31T10:12:34;4.80;;;2.50;;
14268;SDS011;7218;51.480;7.006;2023-07-31T10:15:02;2.65;;;2.00;;
14268;SDS011;7218;51.480;7.006;2023-07-31T10:17:29;2.53;;;2.33;;
14268;SDS011;7218;51.480;7.006;2023-07-31T10:19:58;2.97;;;2.25;;
14268;SDS011;7218;51.480;7.006;2023-07-31T10:22:26;2.22;;;2.03;;
14268;SDS011;7218;51.480;7.006;2023-07-31T10:24:54;4.35;;;2.70;;
14268;SDS011;7218;51.480;7.006;2023-07-31T10:27:22;3.67;;;2.40;;
14268;SDS011;7218;51.480;7.006;2023-07-31T10:29:48;3.80;;;2.60;;
14268;SDS011;7218;51.480;7.006;2023-07-31T10:32:15;5.50;;;2.72;;
14268;SDS011;7218;51.480;7.006;2023-07-31T10:34:43;3.17;;;2.88;;
14268;SDS011;7218;51.480;7.006;2023-07-31T10:37:21;3.35;;;2.45;;
14268;SDS011;7218;51.480;7.006;2023-07-31T10:39:58;4.55;;;3.00;;
14268;SDS011;7218;51.480;7.006;2023-07-31T10:42:29;5.85;;;3.05;;
14268;SDS011;7218;51.480;7.006;2023-07-31T10:45:00;4.32;;;3.08;;
14268;SDS011;7218;51.480;7.006;2023-07-31T10:47:28;6.00;;;3.30;;
14268;SDS011;7218;51.480;7.006;2023-07-31T10:52:45;4.60;;;3.53;;
14268;SDS011;7218;51.480;7.006;2023-07-31T10:55:14;5.43;;;3.10;;
14268;SDS011;7218;51.480;7.006;2023-07-31T10:57:44;5.65;;;3.40;;
14268;SDS011;7218;51.480;7.006;2023-07-31T11:00:17;5.22;;;3.78;;
14268;SDS011;7218;51.480;7.006;2023-07-31T11:02:55;5.28;;;3.53;;
14268;SDS011;7218;51.480;7.006;2023-07-31T11:05:23;6.32;;;3.08;;
14268;SDS011;7218;51.480;7.006;2023-07-31T11:08:11;4.53;;;3.17;;
14268;SDS011;7218;51.480;7.006;2023-07-31T11:10:38;8.63;;;3.40;;
14268;SDS011;7218;51.480;7.006;2023-07-31T11:13:05;8.02;;;3.40;;
14268;SDS011;7218;51.480;7.006;2023-07-31T11:15:32;4.88;;;3.55;;
14268;SDS011;7218;51.480;7.006;2023-07-31T11:17:59;5.82;;;3.60;;
14268;SDS011;7218;51.480;7.006;2023-07-31T11:20:29;4.25;;;3.42;;
14268;SDS011;7218;51.480;7.006;2023-07-31T11:22:57;4.55;;;3.40;;
14268;SDS011;7218;51.480;7.006;2023-07-31T11:25:26;6.22;;;3.50;;
14268;SDS011;7218;51.480;7.006;2023-07-31T11:27:54;5.65;;;3.22;;
14268;SDS011;7218;51.480;7.006;2023-07-31T11:30:21;5.45;;;3.40;;
14268;SDS011;7218;51.480;7.006;2023-07-31T11:32:48;4.10;;;3.20;;
14268;SDS011;7218;51.480;7.006;2023-07-31T11:35:14;7.15;;;3.38;;
14268;SDS011;7218;51.480;7.006;2023-07-31T11:37:41;7.60;;;3.40;;
14268;SDS011;7218;51.480;7.006;2023-07-31T11:40:09;5.30;;;2.95;;
14268;SDS011;7218;51.480;7.006;2023-07-31T11:42:38;5.80;;;3.28;;
14268;SDS011;7218;51.480;7.006;2023-07-31T11:45:04;6.00;;;3.08;;
14268;SDS011;7218;51.480;7.006;2023-07-31T11:47:32;6.47;;;3.10;;
14268;SDS011;7218;51.480;7.006;2023-07-31T11:50:00;3.20;;;2.70;;
14268;SDS011;7218;51.480;7.006;2023-07-31T11:52:28;4.47;;;2.67;;
14268;SDS011;7218;51.480;7.006;2023-07-31T11:54:57;3.42;;;2.72;;
14268;SDS011;7218;51.480;7.006;2023-07-31T11:57:25;4.13;;;2.60;;
14268;SDS011;7218;51.480;7.006;2023-07-31T11:59:53;5.57;;;2.85;;
14268;SDS011;7218;51.480;7.006;2023-07-31T12:02:21;3.70;;;2.70;;
14268;SDS011;7218;51.480;7.006;2023-07-31T12:04:48;5.97;;;3.10;;
14268;SDS011;7218;51.480;7.006;2023-07-31T12:07:15;4.55;;;2.83;;
14268;SDS011;7218;51.480;7.006;2023-07-31T12:09:50;4.15;;;2.65;;
14268;SDS011;7218;51.480;7.006;2023-07-31T12:12:19;4.57;;;3.00;;
14268;SDS011;7218;51.480;7.006;2023-07-31T12:14:47;4.75;;;3.15;;
14268;SDS011;7218;51.480;7.006;2023-07-31T12:17:15;4.50;;;2.85;;
14268;SDS011;7218;51.480;7.006;2023-07-31T12:19:41;5.47;;;2.90;;
14268;SDS011;7218;51.480;7.006;2023-07-31T12:22:11;3.80;;;3.10;;
14268;SDS011;7218;51.480;7.006;2023-07-31T12:24:38;5.13;;;2.83;;
14268;SDS011;7218;51.480;7.006;2023-07-31T12:27:08;4.93;;;2.95;;
14268;SDS011;7218;51.480;7.006;2023-07-31T12:29:35;5.30;;;3.03;;
14268;SDS011;7218;51.480;7.006;2023-07-31T12:32:02;6.03;;;3.28;;
14268;SDS011;7218;51.480;7.006;2023-07-31T12:34:30;6.65;;;3.45;;
14268;SDS011;7218;51.480;7.006;2023-07-31T12:36:57;3.40;;;3.05;;
14268;SDS011;7218;51.480;7.006;2023-07-31T12:39:24;3.88;;;2.78;;
14268;SDS011;7218;51.480;7.006;2023-07-31T12:41:51;5.82;;;3.17;;
14268;SDS011;7218;51.480;7.006;2023-07-31T12:44:17;4.15;;;3.13;;
14268;SDS011;7218;51.480;7.006;2023-07-31T12:46:44;5.03;;;2.67;;
14268;SDS011;7218;51.480;7.006;2023-07-31T12:49:10;6.70;;;3.05;;
14268;SDS011;7218;51.480;7.006;2023-07-31T12:51:38;4.05;;;2.50;;
14268;SDS011;7218;51.480;7.006;2023-07-31T12:54:05;4.20;;;2.58;;
14268;SDS011;7218;51.480;7.006;2023-07-31T12:56:32;3.90;;;2.75;;
14268;SDS011;7218;51.480;7.006;2023-07-31T12:58:59;2.58;;;2.10;;
14268;SDS011;7218;51.480;7.006;2023-07-31T13:01:25;4.00;;;2.50;;
14268;SDS011;7218;51.480;7.006;2023-07-31T13:03:52;3.45;;;2.55;;
14268;SDS011;7218;51.480;7.006;2023-07-31T13:06:18;4.20;;;2.70;;
14268;SDS011;7218;51.480;7.006;2023-07-31T13:08:46;3.92;;;2.42;;
14268;SDS011;7218;51.480;7.006;2023-07-31T13:11:12;3.53;;;2.42;;
14268;SDS011;7218;51.480;7.006;2023-07-31T13:13:39;2.72;;;2.53;;
14268;SDS011;7218;51.480;7.006;2023-07-31T13:16:05;3.33;;;2.53;;
14268;SDS011;7218;51.480;7.006;2023-07-31T13:18:32;2.70;;;2.40;;
14268;SDS011;7218;51.480;7.006;2023-07-31T13:20:58;3.85;;;2.28;;
14268;SDS011;7218;51.480;7.006;2023-07-31T13:23:25;4.35;;;2.50;;
14268;SDS011;7218;51.480;7.006;2023-07-31T13:25:52;2.95;;;2.63;;
14268;SDS011;7218;51.480;7.006;2023-07-31T13:28:19;3.10;;;2.40;;
14268;SDS011;7218;51.480;7.006;2023-07-31T13:30:45;2.97;;;2.53;;
14268;SDS011;7218;51.480;7.006;2023-07-31T13:33:12;3.33;;;2.35;;
14268;SDS011;7218;51.480;7.006;2023-07-31T13:35:38;3.03;;;2.60;;
14268;SDS011;7218;51.480;7.006;2023-07-31T13:38:05;3.55;;;2.63;;
14268;SDS011;7218;51.480;7.006;2023-07-31T13:40:32;3.97;;;2.50;;
14268;SDS011;7218;51.480;7.006;2023-07-31T13:42:59;4.53;;;2.90;;
14268;SDS011;7218;51.480;7.006;2023-07-31T13:45:26;3.63;;;2.90;;
14268;SDS011;7218;51.480;7.006;2023-07-31T13:47:52;3.88;;;2.90;;
14268;SDS011;7218;51.480;7.006;2023-07-31T13:50:19;4.25;;;2.88;;
14268;SDS011;7218;51.480;7.006;2023-07-31T13:52:47;4.40;;;3.00;;
14268;SDS011;7218;51.480;7.006;2023-07-31T13:55:14;4.75;;;3.17;;
14268;SDS011;7218;51.480;7.006;2023-07-31T13:57:40;6.50;;;3.47;;
14268;SDS011;7218;51.480;7.006;2023-07-31T14:00:09;4.50;;;3.50;;
14268;SDS011;7218;51.480;7.006;2023-07-31T14:02:36;5.65;;;3.33;;
14268;SDS011;7218;51.480;7.006;2023-07-31T14:05:03;4.68;;;3.00;;
14268;SDS011;7218;51.480;7.006;2023-07-31T14:07:31;7.95;;;3.90;;
14268;SDS011;7218;51.480;7.006;2023-07-31T14:09:58;4.68;;;3.25;;
14268;SDS011;7218;51.480;7.006;2023-07-31T14:12:24;6.03;;;3.50;;
14268;SDS011;7218;51.480;7.006;2023-07-31T14:14:51;4.05;;;3.40;;
14268;SDS011;7218;51.480;7.006;2023-07-31T14:17:19;5.32;;;3.40;;
14268;SDS011;7218;51.480;7.006;2023-07-31T14:19:45;3.42;;;3.13;;
14268;SDS011;7218;51.480;7.006;2023-07-31T14:22:11;5.78;;;3.30;;
14268;SDS011;7218;51.480;7.006;2023-07-31T14:24:38;6.03;;;3.25;;
14268;SDS011;7218;51.480;7.006;2023-07-31T14:27:04;4.75;;;3.20;;
14268;SDS011;7218;51.480;7.006;2023-07-31T14:29:31;5.38;;;3.53;;
14268;SDS011;7218;51.480;7.006;2023-07-31T14:31:58;5.22;;;3.13;;
14268;SDS011;7218;51.480;7.006;2023-07-31T14:34:26;5.60;;;3.45;;
14268;SDS011;7218;51.480;7.006;2023-07-31T14:36:52;4.20;;;3.30;;
14268;SDS011;7218;51.480;7.006;2023-07-31T14:39:19;5.97;;;3.70;;
14268;SDS011;7218;51.480;7.006;2023-07-31T14:41:45;4.57;;;3.38;;
14268;SDS011;7218;51.480;7.006;2023-07-31T14:44:12;6.40;;;3.42;;
14268;SDS011;7218;51.480;7.006;2023-07-31T14:46:39;5.30;;;3.22;;
14268;SDS011;7218;51.480;7.006;2023-07-31T14:49:05;3.72;;;3.08;;
14268;SDS011;7218;51.480;7.006;2023-07-31T14:51:33;5.07;;;3.40;;
14268;SDS011;7218;51.480;7.006;2023-07-31T14:54:00;4.13;;;3.15;;
14268;SDS011;7218;51.480;7.006;2023-07-31T14:56:26;8.20;;;3.58;;
14268;SDS011;7218;51.480;7.006;2023-07-31T14:58:53;5.50;;;3.40;;